Time;durP1;ratioP1;P1;durP2;ratioP2;P2;SDS_P1;SDS_P2;PMS_P1;PMS_P2;Temp;Humidity;BMP_temperature;BMP_pressure;BME280_temperature;BME280_humidity;BME280_pressure;Samples;Min_cycle;Max_cycle;Signal;HPM_P1;HPM_P2
2022/09/12 00:01:47;;;;;;;10.10;7.20;;;;;;;11.75;99.30;96446.64;108097;1268;22554;-77
2022/09/12 00:04:18;;;;;;;15.80;12.30;;;;;;;11.76;99.45;96442.64;108064;1271;22561;-77
2022/09/12 00:06:49;;;;;;;12.90;10.10;;;;;;;11.76;99.48;96446.08;108086;1267;22551;-77
2022/09/12 00:09:19;;;;;;;14.40;12.80;;;;;;;11.78;99.55;96448.67;107979;1270;28101;-77
2022/09/12 00:11:50;;;;;;;15.90;14.30;;;;;;;11.78;99.66;96441.75;108108;1268;25253;-77
2022/09/12 00:14:21;;;;;;;17.00;14.20;;;;;;;11.77;99.52;96438.11;108037;1270;22548;-77
2022/09/12 00:16:53;;;;;;;16.10;13.30;;;;;;;11.74;99.43;96444.14;108067;1270;22657;-77
2022/09/12 00:19:24;;;;;;;16.70;11.40;;;;;;;11.74;99.44;96441.35;107989;1269;34432;-77
2022/09/12 00:21:55;;;;;;;15.00;13.40;;;;;;;11.75;99.55;96444.24;108072;1271;23933;-77
2022/09/12 00:24:26;;;;;;;16.00;11.70;;;;;;;11.76;99.49;96447.53;108050;1271;22561;-77
2022/09/12 00:26:57;;;;;;;15.90;10.70;;;;;;;11.76;99.39;96441.42;108038;1270;22664;-77
2022/09/12 00:29:28;;;;;;;15.70;12.80;;;;;;;11.76;99.30;96452.73;107989;1270;23942;-77
2022/09/12 00:31:59;;;;;;;15.10;12.00;;;;;;;11.77;99.12;96450.95;108040;1270;22538;-77
2022/09/12 00:34:30;;;;;;;15.80;12.90;;;;;;;11.75;98.93;96450.40;108082;1268;22567;-77
2022/09/12 00:37:00;;;;;;;14.90;13.30;;;;;;;11.74;98.72;96448.30;108032;1270;22532;-77
2022/09/12 00:39:32;;;;;;;15.20;12.10;;;;;;;11.72;98.62;96447.95;107993;1270;24227;-77
2022/09/12 00:42:03;;;;;;;13.60;10.20;;;;;;;11.71;98.64;96447.40;108057;1269;22534;-77
2022/09/12 00:44:49;;;;;;;15.80;13.50;;;;;;;11.70;98.74;96439.30;108098;1268;22595;-77
2022/09/12 00:47:25;;;;;;;14.90;12.80;;;;;;;11.69;98.84;96447.16;108164;1268;22792;-77
2022/09/12 00:50:04;;;;;;;17.30;13.30;;;;;;;11.68;98.89;96444.13;108021;1267;27097;-77
2022/09/12 00:52:40;;;;;;;15.20;13.10;;;;;;;11.68;98.74;96446.48;108037;1270;22929;-77
2022/09/12 00:55:15;;;;;;;15.50;13.50;;;;;;;11.67;98.80;96446.90;108060;1268;22534;-77
2022/09/12 00:57:51;;;;;;;16.50;14.70;;;;;;;11.66;98.88;96450.31;108101;1268;22552;-77
2022/09/12 01:00:25;;;;;;;14.70;12.30;;;;;;;11.67;98.92;96453.45;108073;1267;28331;-77
2022/09/12 01:02:59;;;;;;;16.30;13.80;;;;;;;11.68;99.05;96452.05;108061;1270;26809;-77
2022/09/12 01:05:34;;;;;;;14.50;12.80;;;;;;;11.68;98.77;96452.59;108091;1268;22526;-78
2022/09/12 01:08:06;;;;;;;15.10;13.50;;;;;;;11.65;98.52;96458.57;108003;1270;22550;-77
2022/09/12 01:10:42;;;;;;;15.70;13.30;;;;;;;11.62;98.28;96463.62;108014;1270;28265;-78
2022/09/12 01:13:14;;;;;;;17.30;15.50;;;;;;;11.57;98.20;96466.03;108053;1270;22625;-77
2022/09/12 01:15:46;;;;;;;17.20;15.30;;;;;;;11.53;98.27;96464.21;108110;1268;22548;-77
2022/09/12 01:18:29;;;;;;;16.40;14.70;;;;;;;11.49;98.40;96462.51;108082;1270;23315;-77
2022/09/12 01:21:19;;;;;;;15.30;12.70;;;;;;;11.46;98.54;96460.98;108099;1267;22723;-77
2022/09/12 01:24:25;;;;;;;14.40;12.90;;;;;;;11.43;98.61;96469.73;108060;1270;22545;-77
2022/09/12 01:27:21;;;;;;;11.90;10.50;;;;;;;11.44;98.38;96471.05;107991;1270;22529;-77
2022/09/12 01:30:24;;;;;;;10.20;8.90;;;;;;;11.41;97.74;96468.80;108032;1270;31790;-77
2022/09/12 01:33:11;;;;;;;13.10;9.90;;;;;;;11.36;97.37;96469.34;108098;1267;22630;-77
2022/09/12 01:35:52;;;;;;;11.10;8.10;;;;;;;11.32;97.31;96473.16;108073;1270;22532;-77
2022/09/12 01:38:35;;;;;;;13.10;10.30;;;;;;;11.29;97.34;96473.64;108042;1268;30000;-76
2022/09/12 01:41:13;;;;;;;17.00;14.80;;;;;;;11.27;97.57;96469.46;106943;1270;1481094;-77
2022/09/12 01:43:50;;;;;;;16.40;14.40;;;;;;;11.25;97.69;96467.77;108133;1268;22595;-77
2022/09/12 01:46:25;;;;;;;13.90;11.90;;;;;;;11.24;97.93;96470.39;108116;1268;25353;-77
2022/09/12 01:49:01;;;;;;;16.60;13.60;;;;;;;11.24;98.06;96469.01;108024;1270;27254;-77
2022/09/12 01:51:36;;;;;;;15.40;13.40;;;;;;;11.24;98.24;96473.47;108063;1270;22561;-77
2022/09/12 01:54:14;;;;;;;15.10;13.50;;;;;;;11.23;98.12;96474.77;108055;1270;24250;-77
2022/09/12 01:56:49;;;;;;;15.00;13.50;;;;;;;11.21;98.07;96474.14;108123;1268;22543;-77
2022/09/12 01:59:25;;;;;;;17.00;12.60;;;;;;;11.18;97.80;96476.05;108023;1268;26330;-77
2022/09/12 02:02:05;;;;;;;15.10;12.70;;;;;;;11.13;97.53;96471.55;108086;1267;22552;-77
2022/09/12 02:04:43;;;;;;;13.30;11.90;;;;;;;11.09;97.23;96471.81;108105;1268;22552;-77
2022/09/12 02:07:19;;;;;;;10.50;8.60;;;;;;;11.06;96.91;96466.42;108131;1270;22552;-77
2022/09/12 02:09:54;;;;;;;11.60;9.70;;;;;;;11.05;96.57;96468.63;108106;1268;24214;-77
2022/09/12 02:12:31;;;;;;;12.80;10.40;;;;;;;11.01;96.47;96466.92;108140;1268;23306;-77
2022/09/12 02:15:07;;;;;;;11.80;9.20;;;;;;;10.95;96.46;96466.23;108084;1270;22571;-77
2022/09/12 02:17:42;;;;;;;14.00;9.70;;;;;;;10.88;96.49;96465.11;108110;1269;22570;-77
2022/09/12 02:20:18;;;;;;;11.90;10.00;;;;;;;10.82;96.49;96464.02;108047;1268;27366;-77
2022/09/12 02:22:50;;;;;;;10.50;9.50;;;;;;;10.78;96.56;96463.15;108111;1268;22556;-77
2022/09/12 02:25:22;;;;;;;11.10;8.60;;;;;;;10.76;96.51;96466.15;108115;1267;22556;-77
2022/09/12 02:27:59;;;;;;;11.00;8.80;;;;;;;10.72;96.51;96469.08;108113;1268;22593;-78
2022/09/12 02:30:35;;;;;;;10.60;9.40;;;;;;;10.68;96.57;96467.76;108036;1268;32006;-77
2022/09/12 02:33:15;;;;;;;10.30;8.80;;;;;;;10.66;96.68;96467.67;108158;1268;23853;-77
2022/09/12 02:35:51;;;;;;;11.40;8.90;;;;;;;10.67;96.69;96463.33;108122;1268;22584;-77
2022/09/12 02:38:29;;;;;;;11.40;8.10;;;;;;;10.67;96.79;96462.80;108039;1268;29619;-76
2022/09/12 02:41:00;;;;;;;9.10;7.60;;;;;;;10.67;96.74;96459.33;108144;1268;22807;-77
2022/09/12 02:43:31;;;;;;;9.40;7.30;;;;;;;10.63;96.54;96459.45;108116;1267;22549;-77
2022/09/12 02:46:03;;;;;;;10.20;7.20;;;;;;;10.60;96.47;96459.86;108046;1270;22575;-77
2022/09/12 02:48:38;;;;;;;8.20;7.10;;;;;;;10.59;96.65;96458.27;108069;1267;31055;-76
2022/09/12 02:51:11;;;;;;;9.90;7.60;;;;;;;10.60;96.79;96459.33;108116;1268;22541;-77
2022/09/12 02:53:42;;;;;;;10.10;7.90;;;;;;;10.62;96.94;96456.17;108089;1268;22692;-77
2022/09/12 02:56:18;;;;;;;10.40;7.80;;;;;;;10.68;97.07;96459.49;108126;1267;22546;-78
2022/09/12 02:58:50;;;;;;;9.90;8.00;;;;;;;10.71;96.96;96461.39;108025;1270;33242;-77
2022/09/12 03:01:36;;;;;;;9.50;7.90;;;;;;;10.74;96.87;96458.21;108074;1270;22529;-77
2022/09/12 03:04:37;;;;;;;9.50;7.60;;;;;;;10.76;96.80;96458.58;108042;1270;22565;-77
2022/09/12 03:07:16;;;;;;;11.70;7.70;;;;;;;10.76;96.71;96462.29;108075;1270;22657;-77
2022/09/12 03:09:57;;;;;;;11.70;10.30;;;;;;;10.77;96.88;96464.92;108034;1270;30885;-77
2022/09/12 03:12:43;;;;;;;11.20;9.90;;;;;;;10.80;96.98;96463.29;108011;1270;22586;-77
2022/09/12 03:15:27;;;;;;;11.30;9.30;;;;;;;10.83;97.17;96464.10;108086;1270;22647;-77
2022/09/12 03:18:13;;;;;;;11.40;10.20;;;;;;;10.84;97.10;96468.13;108112;1270;22580;-77
2022/09/12 03:20:51;;;;;;;11.60;10.30;;;;;;;10.83;97.07;96464.75;108090;1270;22545;-77
2022/09/12 03:23:31;;;;;;;11.80;10.60;;;;;;;10.84;97.27;96468.60;108014;1270;22752;-77
2022/09/12 03:26:03;;;;;;;;;;;;;;;10.85;97.36;96462.28;108114;1270;22561;-77
2022/09/12 03:28:35;;;;;;;13.40;10.10;;;;;;;10.86;97.33;96466.48;107947;1270;32278;-76
2022/09/12 03:31:16;;;;;;;10.50;8.70;;;;;;;10.85;97.35;96471.79;108106;1270;22552;-77
2022/09/12 03:33:47;;;;;;;11.30;9.10;;;;;;;10.86;97.20;96464.51;108098;1270;22653;-77
2022/09/12 03:36:23;;;;;;;11.40;8.50;;;;;;;10.86;97.02;96460.59;108079;1270;24019;-77
2022/09/12 03:38:54;;;;;;;10.40;8.50;;;;;;;10.86;96.82;96462.70;108051;1270;28174;-77
2022/09/12 03:41:25;;;;;;;9.80;8.60;;;;;;;10.83;96.63;96463.46;108107;1270;22559;-77
2022/09/12 03:43:57;;;;;;;9.00;7.00;;;;;;;10.79;96.40;96462.98;108093;1269;22571;-77
2022/09/12 03:46:28;;;;;;;10.00;7.70;;;;;;;10.77;96.23;96465.82;108096;1270;22538;-77
2022/09/12 03:48:59;;;;;;;9.20;8.10;;;;;;;10.74;95.94;96471.43;108008;1270;26417;-77
2022/09/12 03:51:30;;;;;;;9.00;7.70;;;;;;;10.68;95.93;96473.66;108080;1268;22618;-77
2022/09/12 03:54:01;;;;;;;8.20;6.70;;;;;;;10.63;95.89;96476.21;108077;1270;25092;-77
2022/09/12 03:56:33;;;;;;;8.20;7.30;;;;;;;10.57;95.85;96481.41;108013;1270;22571;-77
2022/09/12 03:59:06;;;;;;;9.20;7.60;;;;;;;10.55;95.88;96481.48;108023;1270;26926;-77
2022/09/12 04:01:37;;;;;;;8.00;6.60;;;;;;;10.53;95.83;96481.87;108073;1270;24232;-77
2022/09/12 04:04:09;;;;;;;10.70;7.60;;;;;;;10.54;96.04;96481.16;108107;1270;22549;-77
2022/09/12 04:06:41;;;;;;;9.30;7.50;;;;;;;10.53;95.98;96479.42;108003;1270;22523;-77
2022/09/12 04:09:15;;;;;;;9.10;7.00;;;;;;;10.53;96.03;96472.48;108028;1269;28848;-77
2022/09/12 04:11:47;;;;;;;10.20;7.10;;;;;;;10.57;96.01;96478.40;108087;1270;22608;-77
2022/09/12 04:14:18;;;;;;;9.40;7.10;;;;;;;10.58;95.99;96483.58;108097;1270;22565;-77
2022/09/12 04:16:49;;;;;;;8.60;7.10;;;;;;;10.58;95.98;96478.44;108008;1270;23898;-77
2022/09/12 04:19:20;;;;;;;5.30;4.40;;;;;;;10.61;95.87;96482.64;107985;1270;25419;-77
2022/09/12 04:21:51;;;;;;;8.20;5.60;;;;;;;10.69;95.65;96480.39;108081;1270;23468;-77
2022/09/12 04:24:23;;;;;;;8.70;6.40;;;;;;;10.78;95.38;96480.34;108087;1268;22652;-77
2022/09/12 04:26:54;;;;;;;6.80;6.00;;;;;;;10.83;94.94;96482.98;108014;1270;22583;-77
2022/09/12 04:29:26;;;;;;;6.90;5.80;;;;;;;10.89;94.65;96482.07;108001;1269;26964;-77
2022/09/12 04:31:57;;;;;;;8.90;6.60;;;;;;;10.95;94.39;96487.57;108051;1269;22530;-77
2022/09/12 04:34:32;;;;;;;6.70;5.60;;;;;;;10.99;94.29;96488.77;108076;1270;22548;-77
2022/09/12 04:37:03;;;;;;;7.20;5.70;;;;;;;11.03;94.25;96487.70;108097;1270;22526;-77
2022/09/12 04:39:34;;;;;;;6.70;5.80;;;;;;;11.07;94.09;96493.91;108034;1270;23459;-77
2022/09/12 04:42:06;;;;;;;8.50;5.80;;;;;;;11.08;93.89;96487.68;108069;1270;26531;-77
2022/09/12 04:44:37;;;;;;;11.10;6.20;;;;;;;11.06;93.78;96493.65;108058;1270;22542;-77
2022/09/12 04:47:09;;;;;;;7.60;6.00;;;;;;;11.05;93.66;96492.02;108017;1270;22556;-76
2022/09/12 04:49:41;;;;;;;8.30;6.40;;;;;;;11.05;93.49;96496.16;107925;1268;31738;-77
2022/09/12 04:52:12;;;;;;;9.20;7.20;;;;;;;11.04;93.59;96495.58;108083;1270;22622;-77
2022/09/12 04:54:43;;;;;;;10.20;8.00;;;;;;;11.02;93.61;96500.02;107974;1270;22571;-77
2022/09/12 04:57:15;;;;;;;9.20;7.30;;;;;;;11.02;93.76;96496.89;108012;1270;22531;-77
2022/09/12 04:59:46;;;;;;;6.90;5.40;;;;;;;11.02;93.38;96499.59;107973;1270;32348;-77
2022/09/12 05:02:17;;;;;;;9.50;7.00;;;;;;;11.03;93.03;96502.93;108020;1270;22555;-77
2022/09/12 05:04:49;;;;;;;9.50;6.40;;;;;;;11.04;92.88;96503.76;108108;1270;22529;-77
2022/09/12 05:07:20;;;;;;;7.70;6.40;;;;;;;11.07;92.58;96506.68;108025;1270;22540;-77
2022/09/12 05:09:51;;;;;;;8.90;5.40;;;;;;;11.09;92.45;96508.37;108005;1270;25941;-77
2022/09/12 05:12:22;;;;;;;8.50;6.00;;;;;;;11.09;92.17;96505.23;108122;1270;22549;-77
2022/09/12 05:14:54;;;;;;;9.50;6.60;;;;;;;11.08;91.86;96512.19;108102;1270;22689;-77
2022/09/12 05:17:25;;;;;;;7.80;6.80;;;;;;;11.09;91.78;96515.79;108085;1270;23854;-77
2022/09/12 05:19:57;;;;;;;8.90;6.20;;;;;;;11.09;91.63;96516.95;108028;1270;29771;-77
2022/09/12 05:22:28;;;;;;;8.30;5.70;;;;;;;11.09;91.35;96519.33;108029;1270;22758;-77
2022/09/12 05:24:59;;;;;;;8.00;6.50;;;;;;;11.09;91.14;96524.33;108012;1270;26446;-77
2022/09/12 05:27:30;;;;;;;8.60;6.30;;;;;;;11.12;91.14;96524.41;108096;1268;22561;-77
2022/09/12 05:30:01;;;;;;;7.30;4.20;;;;;;;11.13;90.63;96527.75;108049;1270;25477;-77
2022/09/12 05:32:34;;;;;;;9.20;6.20;;;;;;;11.12;90.14;96530.04;108079;1270;26436;-78
2022/09/12 05:35:06;;;;;;;6.80;5.60;;;;;;;11.11;89.94;96531.78;108058;1268;22662;-78
2022/09/12 05:37:38;;;;;;;7.60;6.80;;;;;;;11.11;89.77;96536.46;108049;1268;22545;-78
2022/09/12 05:40:18;;;;;;;9.20;7.30;;;;;;;11.11;89.89;96539.54;107940;1270;24180;-78
2022/09/12 05:42:49;;;;;;;8.40;6.00;;;;;;;11.15;89.72;96534.69;108096;1270;23953;-77
2022/09/12 05:45:20;;;;;;;7.50;5.30;;;;;;;11.12;88.95;96533.86;108068;1270;22541;-78
2022/09/12 05:47:52;;;;;;;9.10;7.20;;;;;;;11.09;87.81;96535.74;108039;1270;22606;-78
2022/09/12 05:50:25;;;;;;;10.10;8.10;;;;;;;11.13;88.08;96539.42;107946;1270;28243;-78
2022/09/12 05:52:59;;;;;;;8.10;6.10;;;;;;;11.19;88.31;96534.94;108072;1270;24227;-78
2022/09/12 05:55:32;;;;;;;9.80;8.70;;;;;;;11.29;88.67;96533.06;108069;1270;22556;-77
2022/09/12 05:58:03;;;;;;;8.90;7.60;;;;;;;11.46;89.05;96531.95;108070;1270;24326;-78
2022/09/12 06:00:34;;;;;;;9.60;8.30;;;;;;;11.59;88.72;96532.46;108008;1270;24777;-77
2022/09/12 06:03:08;;;;;;;8.20;6.90;;;;;;;11.59;88.08;96534.71;108068;1270;25089;-78
2022/09/12 06:05:39;;;;;;;11.50;7.70;;;;;;;11.59;87.95;96544.33;107988;1270;23891;-78
2022/09/12 06:08:10;;;;;;;10.50;8.10;;;;;;;11.67;87.93;96549.42;107984;1270;22608;-78
2022/09/12 06:10:42;;;;;;;11.20;8.00;;;;;;;11.81;88.26;96551.38;107900;1270;24904;-78
2022/09/12 06:13:13;;;;;;;9.50;8.20;;;;;;;11.88;87.75;96547.56;108088;1268;24313;-78
2022/09/12 06:15:47;;;;;;;10.90;8.80;;;;;;;11.74;86.30;96552.52;107977;1270;23205;-78
2022/09/12 06:18:19;;;;;;;9.90;8.60;;;;;;;11.66;86.49;96554.52;108059;1270;24242;-78
2022/09/12 06:20:53;;;;;;;9.20;7.80;;;;;;;11.79;87.30;96550.66;108075;1270;22551;-78
2022/09/12 06:23:25;;;;;;;9.70;7.80;;;;;;;11.98;86.84;96544.34;107999;1270;26768;-78
2022/09/12 06:25:59;;;;;;;8.70;6.80;;;;;;;11.78;85.59;96551.67;107980;1270;22554;-78
2022/09/12 06:28:31;;;;;;;9.50;6.90;;;;;;;11.70;86.23;96554.06;108014;1270;29676;-78
2022/09/12 06:31:08;;;;;;;8.20;7.20;;;;;;;11.84;87.10;96560.63;107997;1267;22550;-78
2022/09/12 06:33:41;;;;;;;9.70;7.60;;;;;;;11.94;86.28;96556.94;108006;1270;24063;-78
2022/09/12 06:36:14;;;;;;;7.60;6.80;;;;;;;12.26;86.97;96560.27;108018;1270;25554;-78
2022/09/12 06:38:46;;;;;;;9.20;6.20;;;;;;;13.46;87.37;96554.95;107946;1270;41002;-77
2022/09/12 06:41:18;;;;;;;9.10;5.50;;;;;;;15.23;84.28;96561.95;108038;1270;22559;-78
2022/09/12 06:43:49;;;;;;;8.10;5.10;;;;;;;16.18;82.69;96558.42;108055;1270;22555;-78
2022/09/12 06:46:21;;;;;;;6.30;4.80;;;;;;;17.11;81.01;96557.37;108005;1269;24911;-78
2022/09/12 06:48:52;;;;;;;4.80;4.30;;;;;;;19.55;80.59;96552.34;107951;1270;30264;-78
2022/09/12 06:51:25;;;;;;;5.20;4.00;;;;;;;20.90;73.31;96556.73;108009;1270;22572;-78
2022/09/12 06:53:58;;;;;;;5.90;4.00;;;;;;;21.14;71.36;96557.49;108002;1270;22527;-78
2022/09/12 06:56:29;;;;;;;4.30;3.20;;;;;;;22.25;68.00;96550.41;107958;1270;26616;-78
2022/09/12 06:59:01;;;;;;;3.30;2.70;;;;;;;21.56;61.46;96560.16;107933;1270;36242;-78
2022/09/12 07:01:33;;;;;;;3.70;2.60;;;;;;;22.08;61.01;96561.56;108040;1270;23948;-78
2022/09/12 07:04:06;;;;;;;5.00;2.80;;;;;;;22.56;54.99;96564.23;107914;1270;22565;-78
2022/09/12 07:06:40;;;;;;;3.10;2.60;;;;;;;22.38;53.58;96559.65;107916;1270;23933;-78
2022/09/12 07:09:15;;;;;;;3.80;3.10;;;;;;;21.32;50.15;96559.45;107993;1270;27952;-77
2022/09/12 07:11:46;;;;;;;3.00;2.60;;;;;;;20.41;52.86;96570.13;108016;1270;22574;-78
2022/09/12 07:14:18;;;;;;;3.80;2.80;;;;;;;20.07;52.17;96569.03;107895;1270;22718;-78
2022/09/12 07:16:49;;;;;;;4.10;3.00;;;;;;;18.08;51.37;96568.25;108079;1270;26436;-78
2022/09/12 07:19:20;;;;;;;5.10;3.00;;;;;;;16.01;55.14;96576.13;107965;1270;27574;-78
2022/09/12 07:21:52;;;;;;;6.50;3.70;;;;;;;14.67;58.62;96579.63;107996;1270;25199;-78
2022/09/12 07:24:23;;;;;;;5.40;4.40;;;;;;;14.84;62.76;96582.60;108032;1270;22539;-78
2022/09/12 07:26:54;;;;;;;6.60;4.60;;;;;;;16.49;62.59;96585.60;108018;1270;26417;-78
2022/09/12 07:29:26;;;;;;;5.80;4.00;;;;;;;16.57;61.21;96581.21;107962;1270;31302;-78
2022/09/12 07:31:57;;;;;;;4.10;3.50;;;;;;;17.48;62.67;96579.74;108069;1269;23832;-78
2022/09/12 07:34:28;;;;;;;3.90;3.50;;;;;;;19.85;59.61;96567.64;108087;1270;24336;-78
2022/09/12 07:37:00;;;;;;;4.10;3.30;;;;;;;20.88;55.35;96577.46;108068;1268;23789;-79
2022/09/12 07:39:31;;;;;;;3.50;2.90;;;;;;;22.40;55.50;96580.90;108029;1269;24920;-78
2022/09/12 07:42:02;;;;;;;4.10;3.40;;;;;;;21.54;51.04;96584.71;108011;1270;22548;-78
2022/09/12 07:44:34;;;;;;;3.30;3.00;;;;;;;20.79;50.19;96593.42;108063;1270;24191;-78
2022/09/12 07:47:06;;;;;;;4.70;2.90;;;;;;;20.90;49.94;96594.23;108073;1270;22575;-78
2022/09/12 07:49:37;;;;;;;3.50;3.10;;;;;;;21.33;48.32;96592.75;108019;1270;34371;-78
2022/09/12 07:52:08;;;;;;;3.70;2.90;;;;;;;21.54;47.23;96593.50;108055;1270;23919;-78
2022/09/12 07:54:40;;;;;;;3.50;2.50;;;;;;;21.67;45.98;96584.08;108052;1270;23036;-78
2022/09/12 07:57:11;;;;;;;3.60;2.50;;;;;;;21.13;45.24;96589.82;108025;1270;22634;-78
2022/09/12 07:59:42;;;;;;;3.00;2.40;;;;;;;21.01;46.03;96594.46;107857;1270;24506;-78
2022/09/12 08:02:14;;;;;;;3.60;2.10;;;;;;;21.93;46.51;96586.77;108007;1270;22751;-79
2022/09/12 08:04:45;;;;;;;2.60;2.00;;;;;;;22.52;43.57;96579.86;107910;1270;24598;-78
2022/09/12 08:07:18;;;;;;;4.10;3.50;;;;;;;22.00;42.46;96576.58;107866;1269;22555;-78
2022/09/12 08:09:49;;;;;;;4.00;2.30;;;;;;;21.71;42.44;96570.14;107907;1270;27418;-78
2022/09/12 08:12:20;;;;;;;3.00;2.40;;;;;;;21.83;44.73;96581.82;107995;1270;22550;-78
2022/09/12 08:14:51;;;;;;;4.80;2.50;;;;;;;23.30;44.62;96578.11;107995;1270;24262;-79
2022/09/12 08:17:23;;;;;;;4.90;2.60;;;;;;;23.04;41.78;96576.34;108019;1270;22555;-79
2022/09/12 08:19:55;;;;;;;3.80;2.60;;;;;;;20.18;43.11;96585.63;107979;1270;38373;-78
2022/09/12 08:22:26;;;;;;;4.10;2.60;;;;;;;17.69;46.73;96587.74;108082;1270;25238;-78
2022/09/12 08:24:57;;;;;;;3.70;2.90;;;;;;;15.89;49.95;96598.85;107988;1270;23167;-78
2022/09/12 08:27:28;;;;;;;4.70;3.20;;;;;;;15.45;52.23;96595.96;107981;1270;22653;-78
2022/09/12 08:29:59;;;;;;;3.30;2.70;;;;;;;17.76;52.62;96591.46;107965;1268;27157;-78
2022/09/12 08:32:30;;;;;;;3.40;2.50;;;;;;;19.71;48.10;96587.64;107955;1270;22574;-78
2022/09/12 08:35:04;;;;;;;4.20;2.70;;;;;;;21.19;48.06;96585.02;107988;1270;26894;-78
2022/09/12 08:37:35;;;;;;;4.30;2.90;;;;;;;21.18;43.75;96584.20;107876;1270;25377;-78
2022/09/12 08:40:09;;;;;;;3.70;3.00;;;;;;;19.95;44.95;96589.77;107989;1270;27320;-79
2022/09/12 08:42:52;;;;;;;4.70;3.30;;;;;;;20.83;45.28;96588.95;108098;1270;22559;-79
2022/09/12 08:45:29;;;;;;;7.50;3.50;;;;;;;21.54;44.26;96585.93;108077;1270;22659;-78
2022/09/12 08:48:06;;;;;;;5.50;3.40;;;;;;;21.01;43.16;96584.28;108063;1270;22542;-78
2022/09/12 08:50:43;;;;;;;4.50;3.10;;;;;;;19.38;46.13;96585.51;108016;1270;33286;-78
2022/09/12 08:53:19;;;;;;;4.10;2.90;;;;;;;19.60;45.73;96583.85;107980;1270;22656;-79
2022/09/12 08:55:58;;;;;;;4.60;3.50;;;;;;;19.55;45.64;96586.27;107975;1270;22561;-78
2022/09/12 08:58:35;;;;;;;5.80;3.70;;;;;;;19.29;47.96;96582.60;108004;1270;29109;-78
2022/09/12 09:01:12;;;;;;;4.90;3.80;;;;;;;19.58;47.44;96585.77;107989;1270;22552;-78
2022/09/12 09:04:01;;;;;;;5.00;3.70;;;;;;;19.30;47.17;96586.95;108059;1270;22636;-79
2022/09/12 09:07:02;;;;;;;4.50;3.40;;;;;;;18.37;48.44;96584.06;108016;1270;24212;-79
2022/09/12 09:09:51;;;;;;;5.30;3.50;;;;;;;17.19;50.79;96585.00;107846;1270;27604;-79
2022/09/12 09:12:27;;;;;;;4.50;3.30;;;;;;;16.93;51.08;96583.77;108010;1270;22720;-79
2022/09/12 09:15:24;;;;;;;6.30;3.70;;;;;;;16.76;52.34;96584.22;108022;1270;26546;-79
2022/09/12 09:17:59;;;;;;;5.50;3.50;;;;;;;16.44;52.92;96587.62;108017;1270;22772;-79
2022/09/12 09:20:35;;;;;;;4.20;3.50;;;;;;;16.19;53.52;96593.25;108003;1270;30113;-79
2022/09/12 09:23:14;;;;;;;6.00;3.60;;;;;;;15.83;54.44;96602.06;107944;1270;24031;-79
2022/09/12 09:25:52;;;;;;;3.80;3.00;;;;;;;15.67;54.57;96604.43;107895;1270;22571;-79
2022/09/12 09:28:27;;;;;;;3.40;2.80;;;;;;;15.47;54.73;96597.85;107965;1270;39509;-79
2022/09/12 09:30:58;;;;;;;4.30;2.90;;;;;;;15.33;56.27;96593.59;108093;1270;22701;-79
2022/09/12 09:33:33;;;;;;;4.40;2.60;;;;;;;16.00;56.61;96600.54;107916;1270;24230;-79
2022/09/12 09:36:18;;;;;;;5.60;2.40;;;;;;;15.79;53.86;96606.56;108101;1270;25745;-79
2022/09/12 09:38:58;;;;;;;5.00;2.70;;;;;;;15.33;54.78;96596.13;107987;1270;27307;-79
2022/09/12 09:41:46;;;;;;;4.10;3.10;;;;;;;15.25;55.68;96590.85;107975;1270;24032;-78
2022/09/12 09:44:18;;;;;;;4.00;2.50;;;;;;;15.18;56.26;96593.77;108119;1270;22801;-78
2022/09/12 09:46:54;;;;;;;3.10;2.80;;;;;;;15.10;56.40;96593.06;108071;1270;22607;-79
2022/09/12 09:49:27;;;;;;;3.50;2.20;;;;;;;14.77;56.55;96592.80;107975;1270;25759;-78
2022/09/12 09:52:00;;;;;;;4.20;2.60;;;;;;;14.61;57.21;96596.53;108135;1267;22574;-78
2022/09/12 09:54:38;;;;;;;4.70;3.00;;;;;;;14.81;57.30;96596.41;108128;1267;24192;-78
2022/09/12 09:57:44;;;;;;;4.60;2.50;;;;;;;14.93;56.29;96578.77;108129;1268;22535;-79
2022/09/12 10:00:33;;;;;;;6.50;2.90;;;;;;;14.83;56.14;96584.36;108049;1267;32616;-78
2022/09/12 10:03:19;;;;;;;4.10;2.70;;;;;;;14.71;56.24;96591.91;108107;1268;24013;-78
2022/09/12 10:05:52;;;;;;;5.10;2.60;;;;;;;14.80;57.36;96597.68;108075;1267;25433;-79
2022/09/12 10:08:26;;;;;;;2.90;2.50;;;;;;;14.85;57.48;96603.96;108048;1267;29019;-78
2022/09/12 10:11:01;;;;;;;6.70;2.60;;;;;;;14.87;57.06;96602.62;108148;1268;22558;-79
2022/09/12 10:13:40;;;;;;;3.30;2.50;;;;;;;14.98;56.42;96608.80;108141;1267;22554;-79
2022/09/12 10:16:22;;;;;;;2.50;2.30;;;;;;;15.28;55.77;96600.06;108127;1267;22538;-79
2022/09/12 10:18:55;;;;;;;3.60;2.50;;;;;;;15.23;55.44;96600.27;108017;1268;30942;-78
2022/09/12 10:21:34;;;;;;;5.50;2.30;;;;;;;15.24;56.15;96595.69;108112;1267;24545;-78
2022/09/12 10:24:22;;;;;;;2.10;1.70;;;;;;;15.37;56.22;96593.69;108112;1267;22519;-79
2022/09/12 10:26:56;;;;;;;3.80;2.50;;;;;;;15.11;55.83;96598.60;108103;1268;22521;-79
2022/09/12 10:29:31;;;;;;;5.10;2.60;;;;;;;14.91;56.75;96599.31;107937;1270;28216;-78
2022/09/12 10:32:07;;;;;;;3.40;2.50;;;;;;;14.93;56.53;96598.42;108043;1270;22556;-78
2022/09/12 10:34:44;;;;;;;5.00;1.90;;;;;;;14.98;55.99;96598.04;108041;1270;22668;-79
2022/09/12 10:37:24;;;;;;;4.40;2.20;;;;;;;14.96;55.60;96600.64;108049;1270;22532;-78
2022/09/12 10:39:58;;;;;;;2.80;1.90;;;;;;;15.04;54.90;96597.43;107995;1270;27988;-78
2022/09/12 10:42:48;;;;;;;2.20;1.40;;;;;;;15.24;55.36;96598.73;108068;1270;22637;-79
2022/09/12 10:45:27;;;;;;;4.10;1.80;;;;;;;15.44;55.42;96599.40;108067;1270;22485;-79
2022/09/12 10:48:01;;;;;;;3.10;1.90;;;;;;;15.78;55.30;96599.34;108046;1270;25547;-79
2022/09/12 10:50:36;;;;;;;3.40;2.20;;;;;;;15.83;54.32;96603.15;107968;1270;30109;-78
2022/09/12 10:53:21;;;;;;;2.80;1.90;;;;;;;15.58;54.20;96601.02;107927;1270;22678;-79
2022/09/12 10:56:07;;;;;;;2.80;2.00;;;;;;;15.50;55.65;96610.37;108114;1270;25247;-79
2022/09/12 10:59:03;;;;;;;5.80;2.10;;;;;;;15.91;54.87;96607.57;107944;1270;23727;-78
2022/09/12 11:01:43;;;;;;;4.40;2.60;;;;;;;16.05;54.74;96603.23;107882;1270;22546;-79
2022/09/12 11:04:39;;;;;;;2.70;1.90;;;;;;;15.92;54.56;96608.92;107925;1270;22545;-79
2022/09/12 11:07:29;;;;;;;3.10;2.00;;;;;;;15.73;53.87;96612.37;107889;1270;24367;-79
2022/09/12 11:10:12;;;;;;;2.60;1.70;;;;;;;15.93;54.55;96604.77;107941;1270;33955;-78
2022/09/12 11:12:51;;;;;;;2.40;1.80;;;;;;;16.05;53.15;96600.08;108023;1270;22567;-79
2022/09/12 11:15:41;;;;;;;4.30;2.00;;;;;;;15.96;53.96;96612.77;108039;1270;23804;-79
2022/09/12 11:18:24;;;;;;;2.80;1.70;;;;;;;15.94;53.08;96603.11;108012;1270;22639;-79
2022/09/12 11:21:12;;;;;;;3.10;1.50;;;;;;;16.01;51.67;96604.81;107997;1270;22553;-79
2022/09/12 11:24:16;;;;;;;4.50;1.80;;;;;;;16.06;51.84;96602.66;108011;1270;22722;-78
2022/09/12 11:27:05;;;;;;;3.00;2.00;;;;;;;15.94;51.50;96603.88;108037;1270;22553;-78
2022/09/12 11:29:50;;;;;;;3.30;1.80;;;;;;;15.89;51.31;96604.38;107968;1270;25216;-79
2022/09/12 11:32:46;;;;;;;2.50;1.60;;;;;;;15.87;50.59;96604.91;108088;1270;23860;-78
2022/09/12 11:35:28;;;;;;;2.70;1.60;;;;;;;15.82;50.67;96603.88;108004;1270;24134;-79
2022/09/12 11:38:22;;;;;;;2.90;1.70;;;;;;;15.84;51.50;96606.98;108049;1270;25463;-78
2022/09/12 11:40:56;;;;;;;3.60;2.20;;;;;;;15.60;51.01;96604.66;108000;1270;22533;-79
2022/09/12 11:43:38;;;;;;;3.30;2.00;;;;;;;15.65;52.48;96598.48;108041;1270;22571;-78
2022/09/12 11:46:18;;;;;;;3.20;1.70;;;;;;;15.82;50.92;96586.45;108086;1270;24038;-78
2022/09/12 11:48:56;;;;;;;3.40;1.60;;;;;;;15.92;50.37;96594.52;108046;1270;26235;-78
2022/09/12 11:51:35;;;;;;;3.90;1.80;;;;;;;16.05;50.49;96591.17;107973;1270;22550;-78
2022/09/12 11:54:19;;;;;;;4.20;1.70;;;;;;;16.22;50.67;96600.93;108080;1270;23343;-78
2022/09/12 11:56:55;;;;;;;2.90;1.70;;;;;;;16.43;49.87;96597.28;108080;1270;22559;-78
2022/09/12 11:59:38;;;;;;;4.50;2.10;;;;;;;16.46;50.60;96599.02;108030;1270;29432;-79
2022/09/12 12:02:18;;;;;;;2.60;1.50;;;;;;;16.63;50.91;96606.09;107997;1270;22612;-78